createdAt,value
2023-05-20T00:00:29.174Z,101164.28
2023-05-20T00:05:25.799Z,101156.34
2023-05-20T00:10:22.187Z,101153.22
2023-05-20T00:15:18.583Z,101156.91
2023-05-20T00:20:15.196Z,101159.69
2023-05-20T00:25:11.657Z,101160.38
2023-05-20T00:30:08.566Z,101171.25
2023-05-20T00:35:05.702Z,101163.38
2023-05-20T00:40:02.150Z,101160.81
2023-05-20T00:44:58.594Z,101154.53
2023-05-20T00:49:55.160Z,101155.09
2023-05-20T00:54:52.525Z,101161.91
2023-05-20T00:59:49.007Z,101165.97
2023-05-20T01:04:47.260Z,101159.16
2023-05-20T01:09:44.369Z,101153.28
2023-05-20T01:14:48.350Z,101148.25
2023-05-20T01:19:45.747Z,101147.53
2023-05-20T01:24:44.057Z,101142.72
2023-05-20T01:29:42.074Z,101146.78
2023-05-20T01:34:41.543Z,101153.19
2023-05-20T01:39:41.663Z,101144.88
2023-05-20T01:44:38.334Z,101145.66
2023-05-20T01:49:34.780Z,101136.56
2023-05-20T01:54:31.386Z,101135.72
2023-05-20T01:59:27.787Z,101131.66
2023-05-20T02:04:24.152Z,101139.09
2023-05-20T02:09:21.585Z,101131.53
2023-05-20T02:14:18.126Z,101131.81
2023-05-20T02:19:19.748Z,101132.94
2023-05-20T02:24:16.697Z,101124.72
2023-05-20T02:29:13.128Z,101125.22
2023-05-20T02:34:09.599Z,101118.59
2023-05-20T02:39:06.876Z,101122.97
2023-05-20T02:44:03.297Z,101114.03
2023-05-20T02:48:59.712Z,101122.28
2023-05-20T02:53:56.117Z,101125.53
2023-05-20T02:58:52.612Z,101110.63
2023-05-20T03:03:49.094Z,101117.09
2023-05-20T03:08:45.517Z,101120.91
2023-05-20T03:13:42.185Z,101122.59
2023-05-20T03:18:39.143Z,101117.47
2023-05-20T03:23:35.562Z,101123.75
2023-05-20T03:28:31.938Z,101122.84
2023-05-20T03:33:29.751Z,101111.63
2023-05-20T03:38:26.984Z,101115.44
2023-05-20T03:43:23.477Z,101122.06
2023-05-20T03:48:20.578Z,101114.72
2023-05-20T03:53:17.471Z,101109.72
2023-05-20T03:58:15.416Z,101120.13
2023-05-20T04:03:12.480Z,101121.50
2023-05-20T04:08:09.911Z,101122.44
2023-05-20T04:13:06.458Z,101114.66
2023-05-20T04:18:03.050Z,101120.63
2023-05-20T04:22:59.555Z,101116.53
2023-05-20T04:27:57.594Z,101117.41
2023-05-20T04:32:54.603Z,101118.59
2023-05-20T04:37:53.122Z,101127.31
2023-05-20T04:42:49.559Z,101114.97
2023-05-20T04:47:46.148Z,101122.00
2023-05-20T04:52:43.667Z,101111.16
2023-05-20T04:57:43.549Z,101119.06
2023-05-20T05:02:40.351Z,101121.84
2023-05-20T05:07:36.805Z,101114.13
2023-05-20T05:12:33.214Z,101102.78
2023-05-20T05:17:29.715Z,101112.47
2023-05-20T05:22:26.130Z,101101.41
2023-05-20T05:27:23.023Z,101105.78
2023-05-20T05:32:19.570Z,101094.81
2023-05-20T05:37:16.021Z,101102.28
2023-05-20T05:42:12.498Z,101100.78
2023-05-20T05:47:09.114Z,101102.69
2023-05-20T05:52:05.707Z,101106.94
2023-05-20T05:57:02.099Z,101101.84
2023-05-20T06:01:58.587Z,101098.75
2023-05-20T06:06:55.032Z,101094.53
2023-05-20T06:11:51.461Z,101099.53
2023-05-20T06:16:47.906Z,101076.06
2023-05-20T06:21:44.334Z,101084.56
2023-05-20T06:26:40.824Z,101080.09
2023-05-20T06:31:37.369Z,101088.59
2023-05-20T06:36:33.974Z,101086.84
2023-05-20T06:41:30.641Z,101089.50
2023-05-20T06:46:27.059Z,101091.22
2023-05-20T06:51:23.486Z,101085.09
2023-05-20T06:56:19.974Z,101080.63
2023-05-20T07:01:18.151Z,101075.22
2023-05-20T07:06:14.907Z,101072.88
2023-05-20T07:11:11.282Z,101064.63
2023-05-20T07:16:07.799Z,101066.41
2023-05-20T07:21:04.178Z,101065.09
2023-05-20T07:26:00.591Z,101058.16
2023-05-20T07:30:57.936Z,101059.69
2023-05-20T07:35:54.564Z,101053.91
2023-05-20T07:40:51.375Z,101053.56
2023-05-20T07:45:47.804Z,101039.63
2023-05-20T07:50:44.591Z,101031.19
2023-05-20T07:55:41.092Z,101028.59
2023-05-20T08:00:37.481Z,101026.66
2023-05-20T08:05:36.940Z,101032.84
2023-05-20T08:10:33.351Z,101024.38
2023-05-20T08:15:29.851Z,101020.44
2023-05-20T08:20:26.569Z,101026.94
2023-05-20T08:25:23.676Z,101030.81
2023-05-20T08:30:20.129Z,101033.88
2023-05-20T08:35:16.608Z,101021.69
2023-05-20T08:40:13.503Z,101015.47
2023-05-20T08:45:15.670Z,101016.09
2023-05-20T08:50:13.447Z,101015.59
2023-05-20T08:55:14.446Z,101015.13
2023-05-20T09:00:13.436Z,101013.81
2023-05-20T09:05:11.662Z,101001.63
2023-05-20T09:10:09.533Z,101010.47
2023-05-20T09:15:07.483Z,101011.22
2023-05-20T09:20:08.690Z,101019.28
2023-05-20T09:25:06.591Z,101019.63
2023-05-20T09:30:07.010Z,101021.88
2023-05-20T09:35:04.332Z,101010.53
2023-05-20T09:40:07.191Z,101000.25
2023-05-20T09:45:04.694Z,100983.50
2023-05-20T09:50:03.342Z,100987.53
2023-05-20T09:55:03.026Z,100990.38
2023-05-20T09:59:59.483Z,100992.63
2023-05-20T10:04:59.168Z,100993.66
2023-05-20T10:10:33.740Z,100988.75
2023-05-20T10:15:51.988Z,100967.97
2023-05-20T10:20:50.106Z,100979.59
2023-05-20T10:25:54.841Z,100991.03
2023-05-20T10:30:51.340Z,100983.34
2023-05-20T10:35:50.515Z,100977.59
2023-05-20T10:40:47.946Z,100974.94
2023-05-20T10:45:58.185Z,100973.13
2023-05-20T10:50:59.763Z,100966.22
2023-05-20T10:55:56.677Z,100969.84
2023-05-20T11:00:55.150Z,100954.78
2023-05-20T11:05:51.778Z,100959.28
2023-05-20T11:10:48.374Z,100956.28
2023-05-20T11:15:44.800Z,100947.13
2023-05-20T11:20:41.602Z,100944.25
2023-05-20T11:25:38.210Z,100945.50
2023-05-20T11:30:34.833Z,100940.38
2023-05-20T11:35:32.953Z,100935.19
2023-05-20T11:40:38.820Z,100941.75
2023-05-20T11:45:45.498Z,100931.94
2023-05-20T11:50:43.849Z,100934.19
2023-05-20T11:55:57.824Z,100942.03
2023-05-20T12:01:01.844Z,100942.19
2023-05-20T12:06:05.941Z,100920.63
2023-05-20T12:11:02.357Z,100912.22
2023-05-20T12:15:58.817Z,100885.53
2023-05-20T12:20:55.195Z,100887.69
2023-05-20T12:25:51.655Z,100896.31
2023-05-20T12:30:48.036Z,100882.66
2023-05-20T12:35:44.710Z,100893.00
2023-05-20T12:40:41.095Z,100880.97
2023-05-20T12:45:37.511Z,100873.56
2023-05-20T12:50:34.242Z,100867.50
2023-05-20T12:55:30.885Z,100869.94
2023-05-20T13:00:27.335Z,100860.53
2023-05-20T13:05:23.741Z,100866.91
2023-05-20T13:10:20.323Z,100865.28
2023-05-20T13:15:16.885Z,100856.63
2023-05-20T13:20:13.482Z,100851.69
2023-05-20T13:25:09.878Z,100832.81
2023-05-20T13:30:07.112Z,100839.78
2023-05-20T13:35:03.721Z,100837.94
2023-05-20T13:40:00.154Z,100831.69
2023-05-20T13:44:56.588Z,100812.91
2023-05-20T13:49:53.032Z,100809.06
2023-05-20T13:54:49.386Z,100819.28
2023-05-20T13:59:45.791Z,100809.94
2023-05-20T14:04:44.882Z,100796.38
2023-05-20T14:09:41.952Z,100797.44
2023-05-20T14:14:38.372Z,100815.13
2023-05-20T14:19:34.914Z,100800.16
2023-05-20T14:24:31.432Z,100793.81
2023-05-20T14:29:27.799Z,100787.19
2023-05-20T14:34:24.182Z,100792.13
2023-05-20T14:39:20.979Z,100779.50
2023-05-20T14:44:17.345Z,100781.22
2023-05-20T14:49:13.810Z,100792.66
2023-05-20T14:54:10.400Z,100792.28
2023-05-20T14:59:07.167Z,100793.69
2023-05-20T15:04:03.735Z,100792.28
2023-05-20T15:09:00.190Z,100798.53
2023-05-20T15:13:56.700Z,100796.91
2023-05-20T15:18:53.141Z,100794.31
2023-05-20T15:23:49.624Z,100803.19
2023-05-20T15:28:46.104Z,100795.78
2023-05-20T15:33:42.600Z,100795.06
2023-05-20T15:38:39.164Z,100780.63
2023-05-20T15:43:36.123Z,100785.19
2023-05-20T15:48:34.708Z,100791.31
2023-05-20T15:53:32.255Z,100788.28
2023-05-20T15:58:28.641Z,100778.91
2023-05-20T16:03:25.119Z,100793.66
2023-05-20T16:08:23.773Z,100783.06
2023-05-20T16:13:20.143Z,100780.66
2023-05-20T16:18:16.675Z,100782.38
2023-05-20T16:23:13.038Z,100773.00
2023-05-20T16:28:09.410Z,100774.03
2023-05-20T16:33:05.926Z,100764.66
2023-05-20T16:38:02.348Z,100767.22
2023-05-20T16:42:59.048Z,100756.28
2023-05-20T16:47:56.373Z,100747.88
2023-05-20T16:52:52.925Z,100747.22
2023-05-20T16:57:50.503Z,100749.53
2023-05-20T17:02:47.002Z,100745.44
2023-05-20T17:07:43.376Z,100749.06
2023-05-20T17:12:39.734Z,100750.81
2023-05-20T17:17:36.129Z,100760.00
2023-05-20T17:22:32.577Z,100757.22
2023-05-20T17:27:29.604Z,100753.53
2023-05-20T17:32:26.368Z,100750.09
2023-05-20T17:37:22.768Z,100749.94
2023-05-20T17:42:19.129Z,100742.06
2023-05-20T17:47:15.814Z,100748.31
2023-05-20T17:52:12.203Z,100743.94
2023-05-20T17:57:08.707Z,100751.56
2023-05-20T18:02:06.235Z,100759.06
2023-05-20T18:07:04.120Z,100778.41
2023-05-20T18:12:00.692Z,100770.50
2023-05-20T18:16:57.465Z,100774.31
2023-05-20T18:21:53.918Z,100758.50
2023-05-20T18:26:50.597Z,100748.34
2023-05-20T18:31:46.961Z,100762.78
2023-05-20T18:36:43.409Z,100757.41
2023-05-20T18:46:42.840Z,100746.56
2023-05-20T18:51:40.264Z,100738.81
2023-05-20T18:56:36.926Z,100749.13
2023-05-20T19:01:33.898Z,100735.56
2023-05-20T19:06:31.787Z,100733.16
2023-05-20T19:11:28.486Z,100736.84
2023-05-20T19:16:26.091Z,100757.16
2023-05-20T19:21:22.576Z,100760.56
2023-05-20T19:26:18.912Z,100767.03
2023-05-20T19:31:20.819Z,100768.31
2023-05-20T19:36:17.537Z,100775.09
2023-05-20T19:41:14.006Z,100771.00
2023-05-20T19:46:10.481Z,100770.13
2023-05-20T19:51:06.927Z,100774.94
2023-05-20T19:56:03.674Z,100770.59
2023-05-20T20:01:00.054Z,100764.22
2023-05-20T20:05:57.001Z,100764.25
2023-05-20T20:10:53.580Z,100763.66
2023-05-20T20:15:49.916Z,100752.22
2023-05-20T20:20:46.248Z,100743.56
2023-05-20T20:25:43.824Z,100753.44
2023-05-20T20:30:40.591Z,100744.41
2023-05-20T20:35:37.524Z,100744.13
2023-05-20T20:40:39.136Z,100726.94
2023-05-20T20:45:38.206Z,100739.88
2023-05-20T20:50:35.670Z,100746.91
2023-05-20T20:55:32.077Z,100742.41
2023-05-20T21:00:28.429Z,100732.22
2023-05-20T21:05:26.376Z,100730.09
2023-05-20T21:10:22.775Z,100720.78
2023-05-20T21:15:19.124Z,100716.09
2023-05-20T21:20:16.246Z,100719.50
2023-05-20T21:25:13.526Z,100712.16
2023-05-20T21:30:11.351Z,100710.78
2023-05-20T21:35:08.477Z,100705.84
2023-05-20T21:40:05.533Z,100697.13
2023-05-20T21:45:01.946Z,100695.88
2023-05-20T21:49:58.468Z,100702.19
2023-05-20T21:54:55.046Z,100693.31
2023-05-20T21:59:51.548Z,100693.44
2023-05-20T22:04:49.166Z,100694.69
2023-05-20T22:09:45.731Z,100691.84
2023-05-20T22:14:42.108Z,100682.25
2023-05-20T22:19:38.716Z,100674.06
2023-05-20T22:24:35.143Z,100677.06
2023-05-20T22:29:32.445Z,100645.53
2023-05-20T22:34:28.951Z,100643.28
2023-05-20T22:39:25.620Z,100634.84
2023-05-20T22:44:21.983Z,100632.69
2023-05-20T22:49:18.903Z,100630.56
2023-05-20T22:54:16.392Z,100619.97
2023-05-20T22:59:13.003Z,100610.91
2023-05-20T23:04:09.393Z,100604.84
2023-05-20T23:09:07.461Z,100605.44
2023-05-20T23:14:04.143Z,100595.81
2023-05-20T23:19:00.601Z,100592.94
2023-05-20T23:23:57.082Z,100586.91
2023-05-20T23:28:53.492Z,100576.88
2023-05-20T23:33:49.929Z,100586.16
2023-05-20T23:38:46.367Z,100579.63
2023-05-20T23:43:42.977Z,100565.00
2023-05-20T23:48:39.793Z,100573.69
2023-05-20T23:53:36.303Z,100564.66
2023-05-20T23:58:32.651Z,100569.00
